Time;durP1;ratioP1;P1;durP2;ratioP2;P2;SDS_P1;SDS_P2;PMS_P1;PMS_P2;Temp;Humidity;BMP_temperature;BMP_pressure;BME280_temperature;BME280_humidity;BME280_pressure;Samples;Min_cycle;Max_cycle;Signal;HPM_P1;HPM_P2
2022/04/26 03:36:38;;;;;;;25.20;16.87;;;;;;;;;;5054033;28;20959;-71
2022/04/26 03:39:04;;;;;;;24.93;16.10;;;;;;;;;;5053881;28;20423;-70
2022/04/26 03:41:30;;;;;;;28.50;17.77;;;;;;;;;;5053678;28;20437;-71
2022/04/26 03:43:56;;;;;;;26.30;16.53;;;;;;;;;;5053781;28;20884;-72
2022/04/26 03:46:22;;;;;;;21.87;16.00;;;;;;;;;;5053527;28;20461;-71
2022/04/26 03:48:48;;;;;;;21.70;15.27;;;;;;;;;;5053652;28;20512;-70
2022/04/26 03:51:14;;;;;;;21.83;15.13;;;;;;;;;;5053687;28;20410;-71
2022/04/26 03:53:40;;;;;;;26.23;15.90;;;;;;;;;;5053635;28;20519;-71
2022/04/26 03:56:06;;;;;;;25.83;16.57;;;;;;;;;;5053457;28;20448;-70
2022/04/26 03:58:33;;;;;;;21.17;14.27;;;;;;;;;;5053570;28;20401;-70
2022/04/26 04:00:59;;;;;;;20.67;14.60;;;;;;;;;;5053427;28;20436;-71
2022/04/26 04:03:25;;;;;;;21.90;14.50;;;;;;;;;;5053468;28;20405;-69
2022/04/26 04:05:52;;;;;;;23.03;15.53;;;;;;;;;;5052067;28;20429;-68
2022/04/26 04:08:18;;;;;;;21.43;15.70;;;;;;;;;;5053231;28;20461;-69
2022/04/26 04:10:44;;;;;;;20.93;15.00;;;;;;;;;;5053353;28;20408;-70
2022/04/26 04:13:10;;;;;;;22.50;15.50;;;;;;;;;;5053337;28;20496;-71
2022/04/26 04:15:37;;;;;;;18.93;13.73;;;;;;;;;;5053330;28;20922;-71
2022/04/26 04:18:03;;;;;;;22.00;14.73;;;;;;;;;;5053139;28;20453;-72
2022/04/26 04:20:32;;;;;;;20.70;14.30;;;;;;;;;;5053240;28;20401;-71
2022/04/26 04:22:58;;;;;;;21.83;15.10;;;;;;;;;;5053270;28;20440;-70
2022/04/26 04:25:24;;;;;;;21.30;13.83;;;;;;;;;;5053126;28;20768;-71
2022/04/26 04:27:50;;;;;;;22.80;15.10;;;;;;;;;;5053035;28;20465;-71
2022/04/26 04:30:16;;;;;;;23.30;16.53;;;;;;;;;;5053146;28;20398;-71
2022/04/26 04:32:42;;;;;;;24.37;16.53;;;;;;;;;;5053144;28;20486;-71
2022/04/26 04:35:09;;;;;;;25.70;17.33;;;;;;;;;;5056771;28;20425;-71
2022/04/26 04:37:35;;;;;;;19.83;14.10;;;;;;;;;;5059632;28;20456;-70
2022/04/26 04:40:01;;;;;;;21.17;13.93;;;;;;;;;;5059576;28;20436;-70
2022/04/26 04:42:27;;;;;;;21.77;14.30;;;;;;;;;;5059587;28;20433;-71
2022/04/26 04:44:53;;;;;;;19.23;14.00;;;;;;;;;;5059724;28;20561;-71
2022/04/26 04:47:19;;;;;;;19.23;13.10;;;;;;;;;;5059511;28;20961;-70
2022/04/26 04:49:45;;;;;;;18.00;12.67;;;;;;;;;;5059627;28;20421;-71
2022/04/26 04:52:11;;;;;;;18.20;13.37;;;;;;;;;;5059737;28;20906;-70
2022/04/26 04:54:37;;;;;;;16.67;12.40;;;;;;;;;;5059586;28;20437;-69
2022/04/26 04:57:04;;;;;;;19.27;14.10;;;;;;;;;;5059476;28;20981;-71
2022/04/26 04:59:30;;;;;;;21.30;14.60;;;;;;;;;;5059533;28;20435;-70
2022/04/26 05:01:56;;;;;;;20.40;13.30;;;;;;;;;;5059471;28;20448;-70
2022/04/26 05:04:22;;;;;;;18.63;13.80;;;;;;;;;;5059471;28;20437;-72
2022/04/26 05:06:48;;;;;;;21.10;13.83;;;;;;;;;;5059079;28;20554;-69
2022/04/26 05:09:14;;;;;;;18.60;12.73;;;;;;;;;;5059282;28;20884;-69
2022/04/26 05:11:40;;;;;;;20.17;13.97;;;;;;;;;;5059326;28;20425;-71
2022/04/26 05:14:07;;;;;;;18.70;12.53;;;;;;;;;;5059336;28;20412;-72
2022/04/26 05:16:33;;;;;;;20.27;14.70;;;;;;;;;;5059335;28;20806;-72
2022/04/26 05:18:59;;;;;;;17.30;13.83;;;;;;;;;;5058035;28;20418;-72
2022/04/26 05:21:25;;;;;;;20.07;13.67;;;;;;;;;;5059054;28;20474;-73
2022/04/26 05:26:36;;;;;;;17.83;12.20;;;;;;;;;;5059261;28;21028;-72
2022/04/26 05:29:02;;;;;;;18.20;13.33;;;;;;;;;;5059268;28;20433;-70
2022/04/26 05:31:28;;;;;;;18.20;13.17;;;;;;;;;;5059142;28;20900;-73
2022/04/26 05:33:54;;;;;;;18.70;13.30;;;;;;;;;;5059065;28;20924;-72
2022/04/26 05:36:20;;;;;;;18.90;13.33;;;;;;;;;;5059164;28;20406;-71
2022/04/26 05:38:46;;;;;;;19.13;13.03;;;;;;;;;;5059126;28;20420;-73
2022/04/26 05:41:13;;;;;;;17.57;12.90;;;;;;;;;;5058960;28;20421;-72
2022/04/26 05:43:39;;;;;;;19.57;14.27;;;;;;;;;;5059015;28;20433;-71
2022/04/26 05:46:10;;;;;;;17.17;13.13;;;;;;;;;;5057743;28;20467;-73
2022/04/26 05:48:36;;;;;;;19.60;13.20;;;;;;;;;;5055909;28;20404;-70
2022/04/26 05:51:03;;;;;;;19.37;13.43;;;;;;;;;;5055901;28;20401;-71
2022/04/26 05:53:29;;;;;;;19.20;14.20;;;;;;;;;;5055801;28;20401;-72
2022/04/26 05:55:55;;;;;;;18.10;13.70;;;;;;;;;;5055680;28;20432;-71
2022/04/26 05:58:21;;;;;;;18.43;14.27;;;;;;;;;;5055665;28;20417;-72
2022/04/26 06:00:48;;;;;;;18.47;13.23;;;;;;;;;;5055553;28;20476;-72
2022/04/26 06:03:14;;;;;;;21.93;14.30;;;;;;;;;;5055585;28;20381;-70
2022/04/26 06:05:40;;;;;;;19.03;13.30;;;;;;;;;;5055375;28;20497;-71
2022/04/26 06:08:07;;;;;;;18.20;13.27;;;;;;;;;;5055266;28;20461;-71
2022/04/26 06:10:33;;;;;;;19.57;13.93;;;;;;;;;;5054064;28;20750;-71
2022/04/26 06:12:59;;;;;;;14.67;11.40;;;;;;;;;;5055430;28;20413;-71
2022/04/26 06:15:25;;;;;;;17.60;13.60;;;;;;;;;;5055296;28;20889;-71
2022/04/26 06:17:51;;;;;;;20.70;14.60;;;;;;;;;;5055284;28;20896;-72
2022/04/26 06:20:18;;;;;;;19.30;13.97;;;;;;;;;;5055223;28;20397;-70
2022/04/26 06:22:44;;;;;;;19.17;13.70;;;;;;;;;;5055152;28;20476;-72
2022/04/26 06:25:10;;;;;;;17.50;13.63;;;;;;;;;;5055165;28;20890;-73
2022/04/26 06:27:36;;;;;;;17.50;14.27;;;;;;;;;;5055010;28;20583;-71
2022/04/26 06:30:02;;;;;;;18.00;13.10;;;;;;;;;;5053789;28;20488;-69
2022/04/26 06:32:28;;;;;;;18.63;13.60;;;;;;;;;;5055031;28;20418;-71
2022/04/26 06:34:54;;;;;;;16.27;12.30;;;;;;;;;;5054934;28;20567;-72
2022/04/26 06:37:23;;;;;;;19.43;12.47;;;;;;;;;;5055051;28;20410;-72
2022/04/26 06:39:49;;;;;;;18.90;12.83;;;;;;;;;;5054930;28;20394;-72
2022/04/26 06:42:15;;;;;;;15.13;11.50;;;;;;;;;;5053547;28;20425;-71
2022/04/26 06:44:41;;;;;;;17.37;12.60;;;;;;;;;;5054711;28;20801;-71
2022/04/26 06:47:07;;;;;;;19.20;12.83;;;;;;;;;;5054741;28;20472;-72
2022/04/26 06:49:33;;;;;;;17.60;12.80;;;;;;;;;;5054725;28;20422;-71
2022/04/26 06:51:59;;;;;;;17.83;12.10;;;;;;;;;;5054564;28;20430;-68
2022/04/26 06:54:25;;;;;;;16.47;12.23;;;;;;;;;;5054593;28;20413;-72
2022/04/26 06:56:51;;;;;;;16.93;13.27;;;;;;;;;;5054410;28;20406;-71
2022/04/26 06:59:17;;;;;;;16.53;12.50;;;;;;;;;;5054182;28;20501;-70
2022/04/26 07:01:43;;;;;;;15.60;11.83;;;;;;;;;;5054449;28;20410;-71
2022/04/26 07:04:09;;;;;;;13.93;10.93;;;;;;;;;;5054408;28;20405;-71
2022/04/26 07:06:35;;;;;;;17.03;11.83;;;;;;;;;;5054076;28;20564;-72
2022/04/26 07:09:03;;;;;;;13.53;10.57;;;;;;;;;;5053084;28;20402;-72
2022/04/26 07:11:29;;;;;;;14.10;11.13;;;;;;;;;;5054159;28;20429;-70
2022/04/26 07:13:57;;;;;;;11.47;9.17;;;;;;;;;;5054092;28;20420;-71
2022/04/26 07:16:23;;;;;;;12.07;9.60;;;;;;;;;;5054224;28;20916;-72
2022/04/26 07:18:49;;;;;;;12.37;9.67;;;;;;;;;;5054137;28;20471;-72
2022/04/26 07:21:15;;;;;;;9.80;8.70;;;;;;;;;;5053918;28;20954;-72
2022/04/26 07:23:41;;;;;;;11.57;8.97;;;;;;;;;;5054066;28;20405;-74
2022/04/26 07:26:07;;;;;;;8.47;7.50;;;;;;;;;;5053986;28;20540;-74
2022/04/26 07:28:33;;;;;;;8.53;6.83;;;;;;;;;;5054037;28;20892;-74
2022/04/26 07:30:59;;;;;;;9.03;7.33;;;;;;;;;;5053860;28;20409;-73
2022/04/26 07:36:10;;;;;;;9.40;7.23;;;;;;;;;;5054155;28;20767;-73
2022/04/26 07:38:39;;;;;;;9.70;8.03;;;;;;;;;;5053790;28;20402;-72
2022/04/26 07:41:07;;;;;;;8.13;7.07;;;;;;;;;;5053549;28;20480;-73
2022/04/26 07:43:33;;;;;;;9.90;7.47;;;;;;;;;;5053595;28;20413;-71
2022/04/26 07:45:59;;;;;;;9.73;8.33;;;;;;;;;;5053413;28;20409;-73
2022/04/26 07:48:26;;;;;;;10.07;7.40;;;;;;;;;;5053667;28;20418;-73
2022/04/26 07:50:52;;;;;;;10.93;8.13;;;;;;;;;;5053688;28;20445;-73
2022/04/26 07:53:18;;;;;;;10.77;8.07;;;;;;;;;;5053606;28;20439;-74
2022/04/26 07:55:44;;;;;;;9.93;8.40;;;;;;;;;;5053303;28;20402;-72
2022/04/26 07:58:10;;;;;;;11.27;8.77;;;;;;;;;;5053451;28;20771;-72
2022/04/26 08:00:37;;;;;;;10.43;8.57;;;;;;;;;;5053385;28;20402;-72
2022/04/26 08:03:05;;;;;;;10.93;7.67;;;;;;;;;;5053265;28;20398;-73
2022/04/26 08:05:30;;;;;;;12.50;9.23;;;;;;;;;;5053326;28;20967;-72
2022/04/26 08:07:57;;;;;;;12.00;9.00;;;;;;;;;;5052992;28;20591;-72
2022/04/26 08:10:23;;;;;;;10.97;8.67;;;;;;;;;;5052592;28;20409;-74
2022/04/26 08:12:49;;;;;;;12.73;8.10;;;;;;;;;;5053208;28;20432;-73
2022/04/26 08:15:18;;;;;;;9.67;7.97;;;;;;;;;;5053217;28;20417;-74
2022/04/26 08:17:44;;;;;;;9.10;7.80;;;;;;;;;;5053161;28;20458;-73
2022/04/26 08:20:10;;;;;;;8.80;7.90;;;;;;;;;;5051851;28;20406;-74
2022/04/26 08:22:37;;;;;;;9.13;7.70;;;;;;;;;;5053082;28;20412;-71
2022/04/26 08:27:49;;;;;;;8.97;7.40;;;;;;;;;;5052996;28;20495;-74
2022/04/26 08:30:16;;;;;;;10.17;8.13;;;;;;;;;;5052974;28;20417;-74
2022/04/26 08:32:43;;;;;;;8.00;7.20;;;;;;;;;;5053080;28;20492;-72
2022/04/26 08:35:10;;;;;;;8.47;7.57;;;;;;;;;;5053048;28;20767;-73
2022/04/26 08:37:37;;;;;;;10.27;7.60;;;;;;;;;;5052879;28;20405;-74
2022/04/26 08:40:05;;;;;;;7.70;7.00;;;;;;;;;;5052917;28;20807;-73
2022/04/26 08:42:34;;;;;;;9.60;8.23;;;;;;;;;;5052713;28;20526;-74
2022/04/26 08:45:01;;;;;;;11.60;7.90;;;;;;;;;;5052856;28;20409;-74
2022/04/26 08:52:57;;;;;;;11.37;9.13;;;;;;;;;;5052919;28;20416;-73
2022/04/26 08:55:23;;;;;;;11.80;9.07;;;;;;;;;;5052759;28;20780;-71
2022/04/26 08:57:49;;;;;;;11.17;8.87;;;;;;;;;;5052648;28;20413;-73
2022/04/26 09:00:15;;;;;;;10.33;8.50;;;;;;;;;;5051469;28;20509;-74
2022/04/26 09:02:41;;;;;;;10.83;7.80;;;;;;;;;;5052750;28;20405;-74
2022/04/26 09:05:16;;;;;;;12.13;9.30;;;;;;;;;;5052725;28;20440;-71
2022/04/26 09:07:45;;;;;;;9.37;7.87;;;;;;;;;;5052381;28;20567;-74
2022/04/26 09:10:19;;;;;;;8.57;7.37;;;;;;;;;;5052643;28;20410;-65
2022/04/26 09:12:59;;;;;;;9.90;8.10;;;;;;;;;;5052649;28;20460;-69
2022/04/26 09:15:25;;;;;;;9.23;7.93;;;;;;;;;;5051548;28;20484;-68
2022/04/26 09:17:52;;;;;;;9.37;7.93;;;;;;;;;;5052527;28;20401;-69
2022/04/26 09:20:38;;;;;;;11.47;7.50;;;;;;;;;;5052708;28;20417;-68
2022/04/26 09:23:14;;;;;;;10.40;7.57;;;;;;;;;;5056387;28;20931;-67
2022/04/26 09:25:40;;;;;;;11.63;8.10;;;;;;;;;;5055230;28;20410;-72
2022/04/26 09:28:07;;;;;;;9.10;7.07;;;;;;;;;;5056253;28;20863;-72
2022/04/26 09:30:35;;;;;;;9.80;7.73;;;;;;;;;;5056296;28;20888;-74
2022/04/26 09:33:01;;;;;;;11.40;7.90;;;;;;;;;;5056203;28;20764;-71
2022/04/26 09:35:29;;;;;;;10.77;7.70;;;;;;;;;;5056085;28;20907;-73
2022/04/26 09:37:55;;;;;;;10.87;8.13;;;;;;;;;;5054807;28;20425;-73
2022/04/26 09:40:22;;;;;;;9.13;7.70;;;;;;;;;;5055944;28;20437;-75
2022/04/26 09:42:48;;;;;;;8.10;7.10;;;;;;;;;;5055947;28;20943;-67
2022/04/26 09:45:16;;;;;;;8.80;6.53;;;;;;;;;;5056106;28;20892;-71
2022/04/26 09:47:43;;;;;;;8.40;6.83;;;;;;;;;;5055889;28;20479;-68
2022/04/26 09:50:10;;;;;;;8.80;6.87;;;;;;;;;;5055976;28;20453;-71
2022/04/26 09:52:36;;;;;;;10.37;7.00;;;;;;;;;;5055820;28;20844;-70
2022/04/26 09:55:03;;;;;;;12.40;7.73;;;;;;;;;;5055748;28;20405;-66
2022/04/26 09:57:32;;;;;;;9.10;7.30;;;;;;;;;;5055867;28;20509;-66
2022/04/26 09:59:59;;;;;;;8.30;6.77;;;;;;;;;;5055857;28;20421;-69
2022/04/26 10:02:30;;;;;;;8.20;6.63;;;;;;;;;;5055540;28;20421;-67
2022/04/26 10:04:59;;;;;;;9.63;7.50;;;;;;;;;;5055566;28;20795;-74
2022/04/26 10:07:26;;;;;;;10.37;6.80;;;;;;;;;;5055170;28;20500;-69
2022/04/26 10:09:54;;;;;;;10.93;7.53;;;;;;;;;;5055481;28;20824;-75
2022/04/26 10:12:21;;;;;;;10.33;6.97;;;;;;;;;;5055341;28;20461;-75
2022/04/26 10:14:48;;;;;;;9.50;6.30;;;;;;;;;;5055536;28;20410;-74
2022/04/26 10:17:19;;;;;;;8.10;6.57;;;;;;;;;;5055380;28;20409;-75
2022/04/26 10:19:45;;;;;;;7.27;5.60;;;;;;;;;;5055415;28;20412;-74
2022/04/26 10:22:20;;;;;;;7.80;5.80;;;;;;;;;;5055104;28;20429;-75
2022/04/26 10:25:04;;;;;;;8.03;6.20;;;;;;;;;;5055350;28;20412;-71
2022/04/26 10:27:30;;;;;;;8.03;6.50;;;;;;;;;;5055026;28;20476;-71
2022/04/26 10:29:56;;;;;;;8.53;6.30;;;;;;;;;;5055142;28;20398;-72
2022/04/26 10:32:29;;;;;;;10.30;6.30;;;;;;;;;;5054066;28;20416;-76
2022/04/26 10:34:56;;;;;;;10.13;6.43;;;;;;;;;;5054914;28;20410;-76
2022/04/26 10:37:22;;;;;;;10.20;5.73;;;;;;;;;;5053610;28;20517;-73
2022/04/26 10:39:59;;;;;;;6.50;5.77;;;;;;;;;;5054917;28;20497;-75
2022/04/26 10:42:26;;;;;;;7.83;5.80;;;;;;;;;;5053431;28;20437;-76
2022/04/26 10:44:56;;;;;;;8.60;5.90;;;;;;;;;;5053531;28;20401;-74
2022/04/26 10:47:24;;;;;;;6.97;4.67;;;;;;;;;;5054634;28;20457;-73
2022/04/26 10:49:51;;;;;;;7.37;5.43;;;;;;;;;;5054731;28;20884;-73
2022/04/26 10:52:24;;;;;;;7.30;5.80;;;;;;;;;;5054801;28;20410;-74
2022/04/26 10:54:58;;;;;;;9.37;6.83;;;;;;;;;;5053288;28;20501;-75
2022/04/26 10:57:31;;;;;;;10.43;6.03;;;;;;;;;;5054597;28;20424;-70
2022/04/26 11:00:07;;;;;;;7.47;5.67;;;;;;;;;;5054513;28;20414;-73
2022/04/26 11:02:35;;;;;;;6.47;5.00;;;;;;;;;;5054422;28;20417;-71
2022/04/26 11:05:05;;;;;;;5.17;4.27;;;;;;;;;;5054458;28;20475;-68
2022/04/26 11:07:31;;;;;;;5.83;5.27;;;;;;;;;;5054085;28;20489;-68
2022/04/26 11:09:59;;;;;;;6.23;4.90;;;;;;;;;;5054391;28;20485;-68
2022/04/26 11:12:25;;;;;;;5.00;4.50;;;;;;;;;;5054060;28;20438;-71
2022/04/26 11:14:53;;;;;;;5.77;4.20;;;;;;;;;;5054275;28;20401;-71
2022/04/26 11:17:20;;;;;;;4.13;3.73;;;;;;;;;;5054087;28;20452;-72
2022/04/26 11:19:50;;;;;;;4.20;3.90;;;;;;;;;;5054228;28;20438;-71
2022/04/26 11:22:17;;;;;;;8.00;6.13;;;;;;;;;;5052809;28;20418;-71
2022/04/26 11:30:23;;;;;;;12.13;8.37;;;;;;;;;;5054349;28;20475;-74
2022/04/26 11:32:49;;;;;;;10.10;8.07;;;;;;;;;;5054407;28;20837;-73
2022/04/26 11:35:15;;;;;;;13.50;8.33;;;;;;;;;;5053789;28;20393;-70
2022/04/26 11:37:44;;;;;;;9.07;7.70;;;;;;;;;;5053613;28;20417;-70
2022/04/26 11:40:11;;;;;;;10.80;8.30;;;;;;;;;;5053756;28;20452;-74
2022/04/26 11:42:37;;;;;;;11.53;8.53;;;;;;;;;;5053384;28;20433;-69
2022/04/26 11:45:03;;;;;;;14.90;8.67;;;;;;;;;;5053654;28;20436;-72
2022/04/26 11:47:58;;;;;;;11.10;8.80;;;;;;;;;;5053541;28;20527;-73
2022/04/26 11:50:26;;;;;;;10.07;8.77;;;;;;;;;;5052941;28;20773;-73
2022/04/26 11:52:54;;;;;;;10.10;7.33;;;;;;;;;;5053580;28;20425;-76
2022/04/26 11:55:25;;;;;;;11.27;7.73;;;;;;;;;;5053595;28;20892;-71
2022/04/26 11:57:51;;;;;;;11.17;7.80;;;;;;;;;;5053512;28;20848;-76
2022/04/26 12:00:18;;;;;;;10.07;7.70;;;;;;;;;;5053679;28;20410;-74
2022/04/26 12:02:45;;;;;;;8.77;6.90;;;;;;;;;;5053359;28;20439;-72
2022/04/26 12:05:12;;;;;;;8.80;6.57;;;;;;;;;;5053387;28;20405;-78
2022/04/26 12:07:38;;;;;;;7.50;6.10;;;;;;;;;;5053019;28;20630;-76
2022/04/26 12:10:24;;;;;;;8.23;6.60;;;;;;;;;;5053409;28;20402;-75
2022/04/26 12:12:56;;;;;;;7.63;5.90;;;;;;;;;;5053370;28;20405;-73
2022/04/26 12:15:29;;;;;;;6.13;5.50;;;;;;;;;;5053266;28;20390;-71
2022/04/26 12:18:13;;;;;;;9.23;5.53;;;;;;;;;;5053235;28;20397;-74
2022/04/26 12:20:55;;;;;;;8.63;6.30;;;;;;;;;;5053096;28;20409;-74
2022/04/26 12:23:22;;;;;;;6.93;5.50;;;;;;;;;;5053238;28;20390;-71
2022/04/26 12:25:55;;;;;;;6.93;5.57;;;;;;;;;;5053148;28;20409;-67
2022/04/26 12:28:21;;;;;;;8.50;6.57;;;;;;;;;;5053143;28;20425;-72
2022/04/26 12:30:47;;;;;;;9.97;7.90;;;;;;;;;;5053134;28;20496;-72
2022/04/26 12:33:24;;;;;;;7.37;6.07;;;;;;;;;;5053036;28;20635;-73
2022/04/26 12:36:16;;;;;;;11.30;6.50;;;;;;;;;;5053044;28;20923;-74
2022/04/26 12:38:50;;;;;;;8.67;6.63;;;;;;;;;;5052671;28;20422;-67
2022/04/26 12:41:16;;;;;;;7.93;6.07;;;;;;;;;;5051567;28;20445;-75
2022/04/26 12:43:43;;;;;;;7.47;5.50;;;;;;;;;;5052935;28;20492;-71
2022/04/26 12:46:09;;;;;;;6.50;4.90;;;;;;;;;;5051609;28;20410;-75
2022/04/26 12:51:29;;;;;;;5.63;4.63;;;;;;;;;;5053027;28;20912;-72
2022/04/26 12:54:06;;;;;;;4.13;3.53;;;;;;;;;;5053045;28;20404;-75
2022/04/26 12:56:32;;;;;;;4.53;3.97;;;;;;;;;;5055139;28;20401;-74
2022/04/26 12:58:58;;;;;;;4.97;3.57;;;;;;;;;;5056805;28;20416;-73
2022/04/26 13:01:24;;;;;;;5.83;3.60;;;;;;;;;;5056776;28;20425;-71
2022/04/26 13:03:50;;;;;;;5.13;4.50;;;;;;;;;;5056880;28;20435;-67
2022/04/26 13:06:18;;;;;;;9.87;5.17;;;;;;;;;;5056341;28;20452;-72
2022/04/26 13:08:48;;;;;;;4.00;3.60;;;;;;;;;;5056638;28;20504;-71
2022/04/26 13:11:17;;;;;;;6.53;4.57;;;;;;;;;;5056585;28;20426;-73
2022/04/26 13:13:46;;;;;;;4.33;3.80;;;;;;;;;;5056621;28;20904;-73
2022/04/26 13:16:12;;;;;;;6.60;4.00;;;;;;;;;;5056330;28;20405;-72
2022/04/26 13:18:38;;;;;;;5.90;4.70;;;;;;;;;;5056530;28;20520;-72
2022/04/26 13:21:06;;;;;;;7.20;4.10;;;;;;;;;;5056351;28;20504;-73
2022/04/26 13:23:34;;;;;;;4.13;3.73;;;;;;;;;;5056400;28;20452;-73
2022/04/26 13:26:00;;;;;;;5.43;4.13;;;;;;;;;;5056131;28;20505;-72
2022/04/26 13:28:26;;;;;;;4.07;3.67;;;;;;;;;;5056192;28;20966;-73
2022/04/26 13:30:52;;;;;;;5.70;4.00;;;;;;;;;;5056414;28;20413;-74
2022/04/26 13:33:18;;;;;;;5.80;4.37;;;;;;;;;;5056200;28;20439;-72
2022/04/26 13:35:45;;;;;;;3.67;3.30;;;;;;;;;;5054807;28;20417;-69
2022/04/26 13:38:11;;;;;;;3.40;2.67;;;;;;;;;;5054847;28;20904;-69
2022/04/26 13:40:38;;;;;;;7.87;4.40;;;;;;;;;;5054550;28;20433;-67
2022/04/26 13:43:05;;;;;;;3.87;3.27;;;;;;;;;;5054624;28;20508;-73
2022/04/26 13:45:32;;;;;;;4.00;3.30;;;;;;;;;;5055577;28;20455;-73
2022/04/26 13:47:59;;;;;;;4.00;2.67;;;;;;;;;;5055723;28;20476;-71
2022/04/26 13:50:25;;;;;;;3.57;2.80;;;;;;;;;;5055872;28;20406;-71
2022/04/26 13:52:51;;;;;;;3.27;2.20;;;;;;;;;;5055856;28;20417;-74
2022/04/26 13:55:17;;;;;;;3.97;2.70;;;;;;;;;;5055852;28;20416;-69
2022/04/26 13:57:44;;;;;;;2.67;2.47;;;;;;;;;;5055657;28;20425;-71
2022/04/26 14:00:13;;;;;;;4.00;2.73;;;;;;;;;;5054437;28;20406;-66
2022/04/26 14:02:41;;;;;;;4.30;3.30;;;;;;;;;;5055690;28;20418;-68
2022/04/26 14:05:08;;;;;;;4.23;3.23;;;;;;;;;;5055633;28;20432;-72
2022/04/26 14:07:34;;;;;;;3.77;2.97;;;;;;;;;;5054100;28;20485;-74
2022/04/26 14:10:00;;;;;;;5.93;2.87;;;;;;;;;;5055505;28;20500;-69
2022/04/26 14:12:26;;;;;;;4.90;3.30;;;;;;;;;;5055479;28;20524;-70
2022/04/26 14:23:07;;;;;;;6.93;4.27;;;;;;;;;;5055421;28;20413;-73
2022/04/26 14:25:33;;;;;;;3.77;3.33;;;;;;;;;;5053915;28;20924;-72
2022/04/26 14:27:59;;;;;;;5.27;3.33;;;;;;;;;;5054994;28;20476;-72
2022/04/26 14:30:25;;;;;;;5.67;4.43;;;;;;;;;;5055068;28;20398;-74
2022/04/26 14:32:51;;;;;;;8.33;4.10;;;;;;;;;;5055148;28;20410;-75
2022/04/26 14:35:17;;;;;;;5.60;4.07;;;;;;;;;;5054976;28;20413;-72
2022/04/26 14:37:43;;;;;;;7.50;3.70;;;;;;;;;;5055093;28;20451;-74
2022/04/26 14:40:09;;;;;;;6.60;4.40;;;;;;;;;;5054943;28;20748;-75
2022/04/26 14:42:37;;;;;;;5.10;4.47;;;;;;;;;;5054755;28;20437;-78
2022/04/26 14:45:03;;;;;;;4.10;3.70;;;;;;;;;;5053596;28;20416;-74
2022/04/26 14:47:29;;;;;;;5.20;3.83;;;;;;;;;;5054892;28;20526;-75
2022/04/26 14:49:59;;;;;;;5.83;3.90;;;;;;;;;;5054913;28;20401;-75
2022/04/26 14:52:25;;;;;;;3.70;3.30;;;;;;;;;;5054914;28;20410;-75
2022/04/26 14:54:51;;;;;;;3.67;3.20;;;;;;;;;;5053351;28;20576;-75
2022/04/26 14:57:17;;;;;;;3.87;3.50;;;;;;;;;;5053396;28;20800;-76
2022/04/26 14:59:47;;;;;;;5.57;3.80;;;;;;;;;;5054681;28;20405;-74
2022/04/26 15:02:18;;;;;;;5.87;3.50;;;;;;;;;;5054414;28;20398;-75
2022/04/26 15:04:48;;;;;;;3.93;3.53;;;;;;;;;;5054558;28;20437;-75
2022/04/26 15:07:14;;;;;;;5.63;3.27;;;;;;;;;;5052678;28;20486;-74
2022/04/26 15:09:43;;;;;;;5.33;3.90;;;;;;;;;;5054509;28;20551;-74
2022/04/26 15:17:43;;;;;;;4.50;4.10;;;;;;;;;;5054553;28;20444;-73
2022/04/26 15:20:09;;;;;;;4.47;4.00;;;;;;;;;;5052571;28;20504;-75
2022/04/26 15:22:37;;;;;;;5.60;4.03;;;;;;;;;;5054092;28;20840;-74
2022/04/26 15:25:06;;;;;;;5.17;3.77;;;;;;;;;;5054070;28;20406;-73
2022/04/26 15:27:34;;;;;;;8.20;5.40;;;;;;;;;;5053764;28;20503;-74
2022/04/26 15:30:01;;;;;;;5.03;3.77;;;;;;;;;;5053995;28;20912;-75
2022/04/26 15:32:27;;;;;;;4.87;3.70;;;;;;;;;;5054003;28;20486;-76
2022/04/26 15:34:53;;;;;;;4.57;3.53;;;;;;;;;;5052478;28;20904;-70
2022/04/26 15:37:19;;;;;;;4.87;3.80;;;;;;;;;;5053900;28;20424;-74
2022/04/26 15:39:47;;;;;;;4.20;3.80;;;;;;;;;;5053870;28;20406;-74
2022/04/26 15:42:14;;;;;;;5.47;4.40;;;;;;;;;;5052447;28;20474;-74
2022/04/26 15:44:40;;;;;;;8.33;4.77;;;;;;;;;;5053643;28;20467;-74
2022/04/26 15:47:06;;;;;;;6.57;4.97;;;;;;;;;;5053445;28;20522;-74
2022/04/26 15:49:32;;;;;;;5.50;4.83;;;;;;;;;;5053629;28;20414;-71
2022/04/26 15:51:58;;;;;;;5.60;4.50;;;;;;;;;;5052420;28;20449;-74
2022/04/26 15:54:25;;;;;;;5.10;4.53;;;;;;;;;;5053518;28;20416;-71
2022/04/26 15:56:51;;;;;;;3.63;3.33;;;;;;;;;;5053464;28;20475;-75
2022/04/26 15:59:17;;;;;;;4.47;4.00;;;;;;;;;;5053438;28;20402;-75
2022/04/26 16:01:43;;;;;;;6.13;4.60;;;;;;;;;;5053405;28;20410;-75
2022/04/26 16:04:10;;;;;;;3.97;3.47;;;;;;;;;;5053443;28;20497;-74
2022/04/26 16:06:39;;;;;;;4.20;3.77;;;;;;;;;;5053007;28;20999;-76
2022/04/26 16:22:51;;;;;;;3.33;3.03;;;;;;;;;;5053384;28;20472;-73
2022/04/26 16:25:18;;;;;;;3.40;2.90;;;;;;;;;;5051820;28;20409;-74
2022/04/26 16:27:44;;;;;;;7.33;3.27;;;;;;;;;;5053099;28;20461;-74
2022/04/26 16:30:10;;;;;;;3.77;3.30;;;;;;;;;;5052286;28;20451;-74
2022/04/26 16:32:38;;;;;;;4.30;3.57;;;;;;;;;;5052957;28;20414;-75
2022/04/26 16:35:04;;;;;;;3.33;3.03;;;;;;;;;;5053098;28;20408;-74
2022/04/26 16:37:30;;;;;;;3.50;3.20;;;;;;;;;;5051812;28;20813;-74
2022/04/26 16:39:56;;;;;;;4.20;3.80;;;;;;;;;;5052971;28;20409;-73
2022/04/26 16:42:22;;;;;;;5.63;3.80;;;;;;;;;;5052682;28;20441;-74
2022/04/26 16:44:48;;;;;;;6.03;3.83;;;;;;;;;;5052880;28;20883;-74
2022/04/26 16:47:14;;;;;;;3.57;3.00;;;;;;;;;;5052961;28;20465;-75
2022/04/26 16:49:40;;;;;;;5.67;3.47;;;;;;;;;;5052964;28;20873;-73
2022/04/26 16:52:06;;;;;;;7.23;3.83;;;;;;;;;;5052936;28;20413;-75
2022/04/26 16:54:32;;;;;;;9.10;5.20;;;;;;;;;;5052912;28;20406;-75
2022/04/26 16:56:58;;;;;;;3.60;3.30;;;;;;;;;;5052964;28;20504;-75
2022/04/26 16:59:25;;;;;;;3.20;2.90;;;;;;;;;;5051699;28;20425;-75
2022/04/26 17:01:51;;;;;;;3.07;2.87;;;;;;;;;;5052660;28;20414;-74
2022/04/26 17:04:17;;;;;;;2.90;2.70;;;;;;;;;;5052860;28;20497;-74
2022/04/26 17:06:44;;;;;;;2.90;2.57;;;;;;;;;;5051051;28;20579;-77
2022/04/26 17:09:11;;;;;;;2.70;2.50;;;;;;;;;;5052800;28;20414;-66
2022/04/26 17:11:43;;;;;;;3.47;3.17;;;;;;;;;;5052621;28;20795;-69
2022/04/26 17:14:10;;;;;;;5.53;3.57;;;;;;;;;;5052634;28;20413;-73
2022/04/26 17:16:36;;;;;;;3.03;2.60;;;;;;;;;;5052501;28;20767;-74
2022/04/26 17:19:02;;;;;;;2.80;2.60;;;;;;;;;;5052605;28;20410;-74
2022/04/26 17:21:29;;;;;;;3.53;3.23;;;;;;;;;;5052472;28;20409;-76
2022/04/26 17:23:55;;;;;;;2.70;2.40;;;;;;;;;;5052658;28;20417;-76
2022/04/26 17:26:22;;;;;;;3.20;2.90;;;;;;;;;;5052413;28;20406;-74
2022/04/26 17:28:48;;;;;;;2.53;2.33;;;;;;;;;;5052659;28;20479;-73
2022/04/26 17:31:14;;;;;;;2.87;2.60;;;;;;;;;;5052509;28;20444;-74
2022/04/26 17:33:41;;;;;;;3.30;3.00;;;;;;;;;;5052493;28;20421;-75
2022/04/26 17:36:07;;;;;;;4.10;2.70;;;;;;;;;;5052490;28;20412;-70
2022/04/26 17:38:33;;;;;;;2.93;2.57;;;;;;;;;;5052540;28;20421;-74
2022/04/26 17:41:00;;;;;;;3.67;3.30;;;;;;;;;;5052308;28;20503;-74
2022/04/26 17:43:26;;;;;;;3.97;3.50;;;;;;;;;;5055674;28;21004;-74
2022/04/26 17:45:52;;;;;;;4.83;2.63;;;;;;;;;;5056002;28;20900;-74
2022/04/26 17:48:19;;;;;;;3.63;2.70;;;;;;;;;;5056211;28;20473;-74
2022/04/26 17:50:45;;;;;;;4.20;3.53;;;;;;;;;;5055994;28;20405;-73
2022/04/26 17:58:41;;;;;;;2.97;2.77;;;;;;;;;;5056088;28;20495;-67
2022/04/26 18:01:07;;;;;;;5.00;4.17;;;;;;;;;;5055666;28;20409;-73
2022/04/26 18:03:33;;;;;;;3.37;2.90;;;;;;;;;;5055848;28;20416;-72
2022/04/26 18:05:59;;;;;;;4.03;3.10;;;;;;;;;;5055593;28;20904;-69
2022/04/26 18:08:26;;;;;;;4.03;3.07;;;;;;;;;;5055275;28;20880;-73
2022/04/26 18:10:52;;;;;;;3.13;2.90;;;;;;;;;;5055511;28;20429;-72
2022/04/26 18:13:18;;;;;;;3.40;3.10;;;;;;;;;;5054356;28;20753;-69
2022/04/26 18:15:44;;;;;;;4.00;3.30;;;;;;;;;;5055398;28;20429;-68
2022/04/26 18:18:10;;;;;;;4.60;3.83;;;;;;;;;;5055511;28;20399;-69
2022/04/26 18:20:36;;;;;;;4.67;3.37;;;;;;;;;;5055447;28;20508;-72
2022/04/26 18:23:02;;;;;;;3.70;3.00;;;;;;;;;;5055434;28;20406;-70
2022/04/26 18:28:15;;;;;;;3.83;3.33;;;;;;;;;;5055310;28;20499;-65
2022/04/26 18:30:41;;;;;;;6.37;4.77;;;;;;;;;;5055321;28;20412;-66
2022/04/26 18:33:08;;;;;;;9.63;4.90;;;;;;;;;;5055304;28;20486;-66
2022/04/26 18:35:34;;;;;;;3.97;3.57;;;;;;;;;;5055258;28;20437;-66
2022/04/26 18:38:00;;;;;;;2.77;2.57;;;;;;;;;;5055103;28;20410;-65
2022/04/26 18:40:26;;;;;;;3.00;2.70;;;;;;;;;;5054869;28;20883;-65
2022/04/26 18:42:52;;;;;;;3.80;3.17;;;;;;;;;;5054884;28;20418;-72
2022/04/26 18:45:22;;;;;;;3.40;3.10;;;;;;;;;;5054937;28;20402;-73
2022/04/26 18:47:47;;;;;;;4.10;3.70;;;;;;;;;;5054757;28;20636;-65
2022/04/26 18:50:13;;;;;;;3.90;3.30;;;;;;;;;;5054929;28;20504;-75
2022/04/26 18:52:40;;;;;;;4.30;3.40;;;;;;;;;;5054695;28;20421;-65
2022/04/26 18:55:06;;;;;;;3.67;3.37;;;;;;;;;;5054093;28;20417;-65
2022/04/26 18:57:32;;;;;;;3.80;3.40;;;;;;;;;;5054762;28;20882;-64
2022/04/26 18:59:58;;;;;;;3.70;3.40;;;;;;;;;;5053205;28;20413;-64
2022/04/26 19:02:24;;;;;;;7.67;3.80;;;;;;;;;;5054395;28;20421;-69
2022/04/26 19:04:50;;;;;;;3.73;3.40;;;;;;;;;;5054539;28;20496;-65
2022/04/26 19:07:16;;;;;;;4.40;2.93;;;;;;;;;;5054239;28;20491;-71
2022/04/26 19:12:27;;;;;;;3.67;3.20;;;;;;;;;;5054798;28;20503;-71